Terminal Aerodrome Forecast
Issued by NWS

Home | Current Version | Previous Version | Text Only | Print | Product List | Glossary On
Versions: 1 2 3 4 5 6 7 8 9 10 11 12 13 14 15 16 17 18 19 20 21 22 23
000
FTUS44 KTSA 181700
TAFBVO
TAF
KBVO 181730Z 1818/1918 00000KT 6SM BR BKN006 OVC010
     FM190600 00000KT 1SM BR OVC004
     FM191500 00000KT 4SM BR OVC007=

USA.gov is the U.S. government's official web portal to all federal, state and local government web resources and services.